Time;durP1;ratioP1;P1;durP2;ratioP2;P2;SDS_P1;SDS_P2;PMS_P1;PMS_P2;Temp;Humidity;BMP_temperature;BMP_pressure;BME280_temperature;BME280_humidity;BME280_pressure;Samples;Min_cycle;Max_cycle;Signal;HPM_P1;HPM_P2
2022/06/12 00:01:44;;;;;;;10.82;1.80;;;19.50;73.20;;;;;;5032971;28;20033;-89
2022/06/12 00:04:23;;;;;;;4.03;1.20;;;19.40;73.30;;;;;;5017645;28;20026;-89
2022/06/12 00:06:49;;;;;;;6.35;1.45;;;19.40;73.60;;;;;;5025788;28;20137;-89
2022/06/12 00:09:16;;;;;;;8.45;1.73;;;19.30;73.60;;;;;;5005357;28;20030;-89
2022/06/12 00:11:45;;;;;;;5.72;1.90;;;19.20;73.60;;;;;;5000243;28;20442;-89
2022/06/12 00:14:15;;;;;;;5.45;1.80;;;19.20;73.90;;;;;;5029110;28;20032;-89
2022/06/12 00:17:23;;;;;;;5.80;1.38;;;19.10;74.10;;;;;;5023340;28;20517;-89
2022/06/12 00:19:54;;;;;;;3.53;1.30;;;19.10;74.70;;;;;;5028329;28;20029;-90
2022/06/12 00:22:23;;;;;;;6.13;1.52;;;19.10;74.90;;;;;;4997185;28;20030;-90
2022/06/12 00:24:49;;;;;;;4.13;1.60;;;19.00;75.00;;;;;;5023559;28;20382;-89
2022/06/12 00:27:15;;;;;;;4.63;1.50;;;19.00;75.30;;;;;;5016224;28;20033;-89
2022/06/12 00:29:42;;;;;;;5.20;1.15;;;18.90;75.50;;;;;;5021006;28;20069;-90
2022/06/12 00:32:14;;;;;;;5.93;1.60;;;18.80;75.90;;;;;;5015176;28;20018;-90
2022/06/12 00:34:54;;;;;;;6.65;1.33;;;18.80;76.30;;;;;;5037485;28;20108;-89
2022/06/12 00:37:25;;;;;;;4.03;1.40;;;18.70;76.60;;;;;;5037698;28;20124;-90
2022/06/12 00:39:58;;;;;;;6.15;1.70;;;18.70;77.30;;;;;;5017904;28;20133;-89
2022/06/12 00:42:35;;;;;;;4.15;1.75;;;18.60;77.50;;;;;;5019177;28;20043;-90
2022/06/12 00:45:39;;;;;;;7.13;1.88;;;18.60;77.70;;;;;;5035887;28;20033;-85
2022/06/12 00:48:35;;;;;;;4.32;1.40;;;18.50;77.90;;;;;;5027160;28;20088;-84
2022/06/12 00:51:10;;;;;;;5.25;1.60;;;18.50;78.30;;;;;;5036584;28;20470;-85
2022/06/12 00:54:00;;;;;;;6.55;1.67;;;18.40;78.40;;;;;;5036987;28;20601;-85
2022/06/12 00:57:07;;;;;;;6.93;1.50;;;18.40;78.80;;;;;;5026129;28;20108;-85
2022/06/12 01:00:10;;;;;;;9.27;2.00;;;18.40;79.40;;;;;;5036147;28;20022;-85
2022/06/12 01:02:45;;;;;;;7.95;1.80;;;18.30;79.80;;;;;;5036715;28;20025;-85
2022/06/12 01:08:25;;;;;;;7.85;2.15;;;18.30;80.50;;;;;;5025170;28;20028;-85
2022/06/12 01:10:58;;;;;;;5.03;2.00;;;18.20;81.10;;;;;;5035728;28;20442;-85
2022/06/12 01:13:41;;;;;;;7.63;1.98;;;18.20;81.60;;;;;;5044529;28;20088;-87
2022/06/12 01:16:17;;;;;;;7.15;1.85;;;18.20;81.60;;;;;;5046937;28;20497;-86
2022/06/12 01:18:52;;;;;;;4.75;1.75;;;18.10;81.70;;;;;;5035777;28;20025;-89
2022/06/12 01:21:37;;;;;;;7.38;1.92;;;18.10;82.10;;;;;;5051996;28;20033;-90
2022/06/12 01:24:10;;;;;;;7.60;2.45;;;18.00;82.60;;;;;;5035595;28;20029;-89
2022/06/12 01:27:07;;;;;;;8.27;1.90;;;18.00;82.80;;;;;;5035419;28;20032;-90
2022/06/12 01:30:11;;;;;;;6.43;1.90;;;18.00;83.00;;;;;;5036610;28;20137;-89
2022/06/12 01:33:06;;;;;;;5.82;2.00;;;17.90;83.10;;;;;;5022498;28;20026;-89
2022/06/12 01:35:56;;;;;;;5.97;1.90;;;17.90;83.70;;;;;;5032132;28;20068;-89
2022/06/12 01:39:02;;;;;;;10.52;1.98;;;17.90;83.70;;;;;;5033845;28;20536;-89
2022/06/12 01:41:54;;;;;;;9.15;2.20;;;17.80;83.90;;;;;;5035257;28;20382;-89
2022/06/12 01:44:58;;;;;;;8.10;2.28;;;17.80;84.10;;;;;;5024069;28;20041;-89
2022/06/12 01:47:46;;;;;;;8.90;2.28;;;17.70;84.30;;;;;;5020974;28;20041;-85
2022/06/12 01:50:24;;;;;;;12.25;2.85;;;17.70;84.50;;;;;;5036732;28;20030;-89
2022/06/12 01:52:59;;;;;;;8.80;2.03;;;17.70;84.70;;;;;;5050922;28;20024;-90
2022/06/12 01:55:54;;;;;;;8.40;1.85;;;17.60;84.90;;;;;;5036109;28;20044;-90
2022/06/12 01:58:58;;;;;;;9.52;2.67;;;17.50;85.40;;;;;;5034437;28;20030;-90
2022/06/12 02:02:05;;;;;;;11.10;2.30;;;17.60;86.00;;;;;;5042211;28;20393;-90
2022/06/12 02:05:19;;;;;;;9.02;2.53;;;17.50;86.40;;;;;;5040049;28;20021;-90
2022/06/12 02:08:06;;;;;;;8.05;2.17;;;17.50;86.70;;;;;;5033354;28;20042;-90
2022/06/12 02:13:11;;;;;;;7.82;2.38;;;17.40;87.00;;;;;;5038124;28;20057;-90
2022/06/12 02:13:55;;;;;;;8.23;2.55;;;17.40;87.50;;;;;;5033390;28;20064;-90
2022/06/12 02:16:53;;;;;;;10.40;2.92;;;17.40;88.30;;;;;;4990702;28;20410;-90
2022/06/12 02:19:27;;;;;;;8.93;2.17;;;17.30;88.70;;;;;;5032784;28;20033;-90
2022/06/12 02:25:39;;;;;;;6.63;1.90;;;17.20;89.20;;;;;;4954853;28;20037;-90
2022/06/12 02:28:32;;;;;;;10.05;2.47;;;17.20;89.40;;;;;;4972735;28;20092;-89
2022/06/12 02:31:45;;;;;;;6.60;2.03;;;17.10;89.50;;;;;;4997681;28;20390;-89
2022/06/12 02:34:53;;;;;;;10.07;2.60;;;17.10;89.70;;;;;;4921924;29;20489;-90
2022/06/12 02:38:11;;;;;;;11.20;2.35;;;17.00;90.10;;;;;;4905592;29;20027;-89
2022/06/12 02:41:31;;;;;;;8.93;2.05;;;17.00;90.40;;;;;;4917154;29;20068;-90
2022/06/12 02:44:24;;;;;;;6.20;2.28;;;17.00;90.70;;;;;;4904494;29;20031;-90
2022/06/12 02:53:46;;;;;;;8.80;2.55;;;16.80;91.20;;;;;;4866151;29;20030;-90
2022/06/12 02:56:53;;;;;;;8.45;2.13;;;16.80;91.30;;;;;;4869817;29;20051;-87
2022/06/12 02:59:54;;;;;;;11.23;2.33;;;16.80;91.60;;;;;;4874431;29;20072;-87
2022/06/12 03:02:46;;;;;;;8.55;2.40;;;16.80;91.70;;;;;;4890415;29;20048;-87
2022/06/12 03:06:06;;;;;;;9.40;2.50;;;16.70;91.90;;;;;;4871449;29;20477;-87
2022/06/12 03:08:58;;;;;;;10.63;2.75;;;16.70;92.20;;;;;;4881763;29;20061;-87
2022/06/12 03:11:50;;;;;;;8.52;2.38;;;16.70;92.20;;;;;;4898167;29;20691;-87
2022/06/12 03:14:38;;;;;;;13.00;2.83;;;16.70;92.40;;;;;;4944865;29;20130;-87
2022/06/12 03:17:13;;;;;;;10.15;2.20;;;16.70;92.60;;;;;;4984702;28;20038;-87
2022/06/12 03:23:41;;;;;;;8.80;2.60;;;16.60;92.80;;;;;;5048409;28;20028;-87
2022/06/12 03:26:37;;;;;;;9.63;2.60;;;16.60;93.10;;;;;;5047660;28;20029;-87
2022/06/12 03:29:09;;;;;;;11.10;2.78;;;16.60;93.30;;;;;;5047007;28;20502;-87
2022/06/12 03:32:12;;;;;;;10.00;2.65;;;16.50;93.50;;;;;;5046429;28;20116;-87
2022/06/12 03:35:08;;;;;;;8.88;2.63;;;16.50;93.70;;;;;;5044419;28;20037;-87
2022/06/12 03:37:46;;;;;;;7.38;2.75;;;16.50;94.00;;;;;;5041675;28;20033;-87
2022/06/12 03:40:30;;;;;;;9.65;3.30;;;16.50;94.30;;;;;;5044414;28;20044;-87
2022/06/12 03:43:15;;;;;;;10.63;2.78;;;16.50;94.60;;;;;;5029957;28;20029;-87
2022/06/12 03:46:11;;;;;;;11.50;2.72;;;16.50;94.80;;;;;;5023740;28;20034;-87
2022/06/12 03:49:48;;;;;;;9.80;2.35;;;16.50;95.10;;;;;;5033738;28;20401;-87
2022/06/12 03:52:31;;;;;;;7.93;2.47;;;16.40;95.50;;;;;;4901408;29;20111;-87
2022/06/12 03:58:56;;;;;;;11.43;2.88;;;16.40;96.00;;;;;;4913920;29;20029;-87
2022/06/12 04:01:23;;;;;;;13.10;2.85;;;16.40;96.30;;;;;;4973557;28;20130;-88
2022/06/12 04:03:50;;;;;;;9.30;2.65;;;16.40;96.60;;;;;;4995311;28;20030;-87
2022/06/12 04:06:29;;;;;;;10.55;3.20;;;16.40;96.90;;;;;;5029713;28;20041;-87
2022/06/12 04:09:12;;;;;;;8.23;2.63;;;16.40;96.90;;;;;;5051109;28;20021;-87
2022/06/12 04:12:04;;;;;;;14.63;3.70;;;16.40;97.00;;;;;;5037699;28;20033;-87
2022/06/12 04:14:43;;;;;;;10.27;3.00;;;16.30;97.20;;;;;;5024262;28;20018;-87
2022/06/12 04:17:09;;;;;;;11.50;2.97;;;16.30;97.40;;;;;;5036492;28;20046;-87
2022/06/12 04:19:58;;;;;;;12.52;2.83;;;16.30;97.50;;;;;;5036525;28;20029;-88
2022/06/12 04:22:30;;;;;;;12.45;3.35;;;16.30;97.70;;;;;;5022956;28;20551;-87
2022/06/12 04:25:05;;;;;;;10.32;3.25;;;16.30;98.00;;;;;;5020206;28;20032;-87
2022/06/12 04:27:40;;;;;;;9.38;3.47;;;16.30;98.10;;;;;;5019880;28;20034;-87
2022/06/12 04:30:34;;;;;;;11.35;3.13;;;16.30;98.20;;;;;;5036103;28;20528;-87
2022/06/12 04:33:23;;;;;;;12.25;3.30;;;16.20;98.40;;;;;;5036344;28;20026;-87
2022/06/12 04:36:02;;;;;;;10.18;3.45;;;16.20;98.60;;;;;;5050275;28;20111;-87
2022/06/12 04:38:35;;;;;;;9.50;2.92;;;16.20;98.90;;;;;;5024612;28;20056;-87
2022/06/12 04:41:01;;;;;;;12.70;3.40;;;16.20;98.80;;;;;;5036640;28;20022;-85
2022/06/12 04:43:29;;;;;;;8.00;2.67;;;16.20;99.00;;;;;;5019748;28;20022;-84
2022/06/12 04:46:33;;;;;;;12.90;3.38;;;16.10;99.10;;;;;;5019845;28;20026;-85
2022/06/12 04:49:03;;;;;;;12.40;3.35;;;16.20;99.20;;;;;;5027502;28;20038;-85
2022/06/12 04:51:30;;;;;;;14.10;3.40;;;16.10;99.80;;;;;;5035957;28;20026;-85
2022/06/12 04:53:58;;;;;;;10.50;3.00;;;16.10;99.90;;;;;;5016246;28;20041;-84
2022/06/12 04:56:48;;;;;;;12.57;3.17;;;16.10;99.90;;;;;;5013834;28;20120;-84
2022/06/12 04:59:18;;;;;;;9.95;3.08;;;16.10;99.90;;;;;;5045509;28;20078;-85
2022/06/12 05:01:54;;;;;;;12.15;3.55;;;16.10;99.90;;;;;;5038386;28;20041;-85
2022/06/12 05:04:22;;;;;;;13.98;3.55;;;16.10;99.90;;;;;;5035768;28;20017;-85
2022/06/12 05:06:49;;;;;;;11.45;3.25;;;16.10;99.90;;;;;;5019129;28;20029;-85
2022/06/12 05:09:28;;;;;;;11.13;3.33;;;16.10;99.90;;;;;;5035422;28;20017;-85
2022/06/12 05:11:54;;;;;;;11.68;3.97;;;16.10;99.90;;;;;;5022121;28;20033;-85
2022/06/12 05:14:50;;;;;;;10.45;3.35;;;16.10;99.90;;;;;;5038046;28;20026;-85
2022/06/12 05:17:45;;;;;;;11.07;3.05;;;16.20;99.90;;;;;;5036096;28;20052;-85
2022/06/12 05:23:09;;;;;;;12.90;4.05;;;16.20;99.90;;;;;;5036077;28;20583;-85
2022/06/12 05:25:47;;;;;;;12.38;3.30;;;16.30;99.90;;;;;;5034627;28;20502;-85
2022/06/12 05:28:16;;;;;;;13.63;3.13;;;16.30;99.90;;;;;;5035524;28;20022;-85
2022/06/12 05:30:45;;;;;;;12.13;3.80;;;16.30;99.90;;;;;;5035772;28;20038;-85
2022/06/12 05:33:16;;;;;;;12.03;3.23;;;16.30;99.90;;;;;;5035029;28;20041;-85
2022/06/12 05:35:42;;;;;;;10.57;3.33;;;16.40;99.90;;;;;;5036682;28;20112;-85
2022/06/12 05:38:11;;;;;;;11.85;3.38;;;16.40;99.90;;;;;;5047228;28;20103;-85
2022/06/12 05:40:40;;;;;;;12.82;3.65;;;16.40;99.90;;;;;;5014882;28;20038;-85
2022/06/12 05:43:08;;;;;;;16.85;3.47;;;16.50;99.90;;;;;;5009696;28;20032;-85
2022/06/12 05:45:34;;;;;;;13.63;3.25;;;16.50;99.90;;;;;;5034695;28;20425;-85
2022/06/12 05:48:18;;;;;;;13.70;3.30;;;16.60;99.90;;;;;;5035425;28;20034;-85
2022/06/12 05:50:54;;;;;;;12.90;3.20;;;16.60;99.90;;;;;;5036335;28;20169;-85
2022/06/12 05:56:45;;;;;;;;;;;16.70;99.90;;;;;;4996005;28;20125;-87
2022/06/12 05:59:25;;;;;;;14.88;3.38;;;16.70;99.90;;;;;;4994956;28;20374;-86
2022/06/12 06:02:27;;;;;;;17.85;4.10;;;16.70;99.90;;;;;;4962422;28;20514;-87
2022/06/12 06:11:23;;;;;;;12.95;3.67;;;16.90;99.90;;;;;;4995171;28;20231;-88
2022/06/12 06:16:58;;;;;;;16.15;4.07;;;17.00;99.90;;;;;;4904263;29;20044;-88
2022/06/12 06:19:40;;;;;;;17.35;4.40;;;17.00;99.90;;;;;;4902684;29;20056;-89
2022/06/12 06:22:24;;;;;;;20.48;4.45;;;17.10;99.90;;;;;;4905772;29;20492;-90
2022/06/12 06:25:18;;;;;;;13.85;3.75;;;17.10;99.90;;;;;;4942131;29;20023;-89
2022/06/12 06:31:34;;;;;;;13.35;4.30;;;17.30;99.90;;;;;;4925279;29;20038;-89
2022/06/12 06:34:06;;;;;;;16.85;4.78;;;17.30;99.90;;;;;;4935214;28;20031;-90
2022/06/12 06:37:10;;;;;;;15.52;4.40;;;17.40;99.90;;;;;;4986680;28;20033;-90
2022/06/12 06:39:54;;;;;;;20.95;4.50;;;17.50;99.90;;;;;;5016965;28;20030;-89
2022/06/12 06:42:26;;;;;;;16.27;4.22;;;17.50;99.90;;;;;;5018559;28;20501;-90
2022/06/12 06:48:42;;;;;;;16.08;4.65;;;17.70;99.90;;;;;;5037178;28;20409;-90
2022/06/12 06:51:14;;;;;;;14.93;4.53;;;17.80;99.90;;;;;;5036993;28;20021;-89
2022/06/12 06:53:58;;;;;;;19.40;4.57;;;17.90;99.90;;;;;;5036802;28;20029;-89
2022/06/12 07:06:33;;;;;;;;;;;18.20;99.90;;;;;;4939164;29;20055;-90
2022/06/12 07:15:55;;;;;;;16.17;4.53;;;18.40;99.90;;;;;;4955358;29;19921;-89
2022/06/12 07:19:18;;;;;;;17.38;4.57;;;18.40;99.90;;;;;;4872369;29;20065;-89
2022/06/12 07:22:21;;;;;;;16.00;4.68;;;18.60;99.90;;;;;;4863875;29;20049;-89
2022/06/12 07:24:56;;;;;;;18.50;5.05;;;18.70;99.90;;;;;;4824919;29;20035;-89
2022/06/12 07:27:52;;;;;;;16.90;4.85;;;18.80;99.90;;;;;;4825699;29;20038;-89
2022/06/12 07:30:51;;;;;;;13.90;4.55;;;18.90;99.90;;;;;;4842748;29;20039;-90
2022/06/12 07:33:26;;;;;;;14.02;4.13;;;19.00;99.90;;;;;;4834782;29;20035;-90
2022/06/12 07:36:01;;;;;;;16.08;4.40;;;19.10;99.90;;;;;;4826801;29;20083;-90
2022/06/12 07:38:45;;;;;;;;;;;;;;;;;;;;;
2022/06/12 07:44:51;;;;;;;14.57;4.05;;;19.50;99.90;;;;;;4946722;29;20476;-89
2022/06/12 07:47:24;;;;;;;15.15;4.15;;;19.60;99.90;;;;;;4967728;29;20055;-89
2022/06/12 07:49:50;;;;;;;14.48;4.00;;;19.70;99.90;;;;;;4937632;29;20019;-89
2022/06/12 07:52:26;;;;;;;17.30;4.72;;;19.80;99.90;;;;;;4953329;29;20102;-89
2022/06/12 07:55:16;;;;;;;15.13;3.83;;;19.90;99.90;;;;;;5013042;28;20091;-90
2022/06/12 07:57:42;;;;;;;11.05;3.28;;;20.00;99.90;;;;;;5029532;28;20034;-90
2022/06/12 08:00:33;;;;;;;13.70;3.85;;;20.10;99.90;;;;;;5027262;28;20386;-90
2022/06/12 08:03:17;;;;;;;10.90;3.30;;;20.20;99.90;;;;;;5015190;28;20030;-90
2022/06/12 08:05:42;;;;;;;12.20;3.42;;;20.30;99.90;;;;;;5064109;23;20050;-86
2022/06/12 08:08:08;;;;;;;14.27;3.50;;;20.30;99.90;;;;;;5012277;28;20029;-83
2022/06/12 08:10:34;;;;;;;15.90;4.25;;;20.50;99.90;;;;;;5008100;28;20391;-85
2022/06/12 08:13:07;;;;;;;16.10;3.53;;;20.60;98.80;;;;;;5015534;28;20037;-85
2022/06/12 08:15:33;;;;;;;13.57;3.75;;;20.60;98.90;;;;;;5024873;28;20467;-86
2022/06/12 08:17:59;;;;;;;10.52;3.15;;;20.70;98.70;;;;;;5024956;28;20104;-85
2022/06/12 08:20:28;;;;;;;13.77;4.18;;;20.80;98.20;;;;;;5020835;28;20064;-86
2022/06/12 08:23:26;;;;;;;15.10;4.25;;;20.80;97.70;;;;;;5037488;28;20030;-84
2022/06/12 08:26:01;;;;;;;14.82;4.68;;;20.90;97.20;;;;;;5036431;28;20377;-84
2022/06/12 08:28:32;;;;;;;12.85;3.70;;;20.90;97.10;;;;;;5023257;28;20025;-84
2022/06/12 08:31:01;;;;;;;18.33;3.60;;;21.00;96.90;;;;;;5030579;28;20021;-84
2022/06/12 08:33:27;;;;;;;17.35;3.90;;;21.00;96.40;;;;;;5026177;28;20033;-84
2022/06/12 08:39:14;;;;;;;13.68;3.30;;;21.10;96.40;;;;;;5029133;28;20430;-84
2022/06/12 08:41:50;;;;;;;10.60;3.10;;;21.20;96.60;;;;;;4995779;28;20062;-84
2022/06/12 08:44:43;;;;;;;10.32;2.90;;;21.30;96.70;;;;;;5019067;28;20049;-84
2022/06/12 08:47:17;;;;;;;12.90;2.97;;;21.40;97.00;;;;;;5022434;28;20018;-84
2022/06/12 08:49:58;;;;;;;11.38;2.95;;;21.50;96.30;;;;;;5019031;28;20032;-84
2022/06/12 08:52:32;;;;;;;14.02;4.05;;;21.60;95.90;;;;;;5019966;28;20105;-85
2022/06/12 08:55:01;;;;;;;12.48;3.55;;;21.60;95.40;;;;;;5026087;28;20029;-85
2022/06/12 08:57:36;;;;;;;13.77;3.53;;;21.60;95.10;;;;;;5028007;28;20029;-85
2022/06/12 09:00:09;;;;;;;14.18;3.53;;;21.70;95.20;;;;;;5033066;28;20022;-85
2022/06/12 09:02:39;;;;;;;11.60;3.25;;;21.70;95.10;;;;;;5032028;28;20033;-85
2022/06/12 09:05:08;;;;;;;15.05;3.58;;;21.80;94.80;;;;;;5018912;28;20483;-85
2022/06/12 09:07:51;;;;;;;13.57;3.30;;;21.80;94.10;;;;;;5034236;28;20128;-85
2022/06/12 09:10:36;;;;;;;15.55;3.30;;;21.90;93.50;;;;;;5034950;28;20548;-85
2022/06/12 09:13:17;;;;;;;8.85;2.50;;;21.90;93.00;;;;;;5024046;28;20088;-83
2022/06/12 09:15:46;;;;;;;10.85;2.92;;;22.00;92.40;;;;;;5034483;28;20139;-84
2022/06/12 09:18:38;;;;;;;7.05;2.40;;;22.00;91.30;;;;;;5025981;28;20046;-83
2022/06/12 09:21:07;;;;;;;10.02;3.00;;;22.00;91.90;;;;;;5018929;28;20029;-83
2022/06/12 09:23:37;;;;;;;8.65;2.85;;;22.10;91.80;;;;;;5023772;28;20494;-83
2022/06/12 09:26:14;;;;;;;9.13;2.97;;;22.20;91.80;;;;;;5031576;28;20383;-83
2022/06/12 09:28:48;;;;;;;8.45;2.80;;;22.20;90.90;;;;;;5034238;28;20029;-83
2022/06/12 09:31:28;;;;;;;8.63;2.53;;;22.30;90.10;;;;;;5030266;28;20022;-83
2022/06/12 09:34:04;;;;;;;10.25;2.83;;;22.30;88.50;;;;;;5026475;28;20044;-84
2022/06/12 09:36:55;;;;;;;10.55;3.00;;;22.30;86.80;;;;;;5034144;28;20026;-84
2022/06/12 09:40:12;;;;;;;9.27;2.47;;;22.30;86.00;;;;;;5021634;28;20034;-84
2022/06/12 09:42:56;;;;;;;11.25;2.83;;;22.40;85.30;;;;;;4975714;28;20030;-84
2022/06/12 09:45:44;;;;;;;8.48;2.75;;;22.40;82.60;;;;;;5020178;28;20032;-83
2022/06/12 09:48:47;;;;;;;7.72;2.47;;;22.40;84.80;;;;;;5033056;28;20040;-83
2022/06/12 09:51:24;;;;;;;10.23;2.92;;;22.50;85.90;;;;;;5032926;28;20026;-83
2022/06/12 09:54:34;;;;;;;10.13;2.50;;;22.50;83.20;;;;;;5019247;28;20424;-83
2022/06/12 09:57:06;;;;;;;9.40;2.30;;;22.50;84.00;;;;;;4971634;28;20079;-83
2022/06/12 09:59:49;;;;;;;10.45;3.20;;;22.50;83.90;;;;;;4969789;28;20117;-83
2022/06/12 10:02:30;;;;;;;8.95;2.70;;;22.60;82.20;;;;;;5016907;28;20030;-84
2022/06/12 10:05:25;;;;;;;7.18;2.45;;;22.60;82.10;;;;;;5029379;28;20384;-83
2022/06/12 10:08:03;;;;;;;8.65;2.50;;;22.60;82.20;;;;;;5033658;28;20103;-84
2022/06/12 10:10:56;;;;;;;9.98;2.45;;;22.70;83.10;;;;;;5033611;28;20075;-83
2022/06/12 10:13:30;;;;;;;7.82;2.80;;;22.70;82.30;;;;;;5020714;28;20143;-84
2022/06/12 10:16:02;;;;;;;7.88;2.33;;;22.80;83.80;;;;;;5020574;28;20018;-84
2022/06/12 10:18:52;;;;;;;11.70;2.72;;;22.90;84.80;;;;;;5033321;28;20029;-83
2022/06/12 10:21:21;;;;;;;9.02;2.85;;;23.00;83.90;;;;;;5003395;28;20387;-83
2022/06/12 10:23:48;;;;;;;10.57;3.05;;;23.00;84.00;;;;;;5030006;28;20482;-84
2022/06/12 10:26:24;;;;;;;12.00;2.85;;;23.10;84.00;;;;;;5028183;28;20026;-83
2022/06/12 10:29:14;;;;;;;13.23;3.00;;;23.20;82.90;;;;;;5017354;28;20018;-82
2022/06/12 10:31:59;;;;;;;11.07;3.05;;;23.20;82.60;;;;;;5022460;28;20029;-83
2022/06/12 10:34:30;;;;;;;8.50;2.80;;;23.20;83.20;;;;;;5014866;28;20048;-83
2022/06/12 10:37:08;;;;;;;9.43;3.13;;;23.30;83.20;;;;;;5016085;28;20026;-82
2022/06/12 10:39:35;;;;;;;9.80;2.50;;;23.30;83.50;;;;;;5019368;28;20475;-83
2022/06/12 10:42:08;;;;;;;9.70;2.92;;;23.30;82.70;;;;;;5003004;28;20541;-83
2022/06/12 10:44:38;;;;;;;10.55;3.00;;;23.40;82.20;;;;;;5016588;28;20053;-83
2022/06/12 10:47:37;;;;;;;10.63;2.60;;;23.40;82.80;;;;;;5019440;28;20454;-81
2022/06/12 10:50:26;;;;;;;8.48;2.67;;;23.50;82.40;;;;;;5016633;28;20032;-83
2022/06/12 10:53:10;;;;;;;8.13;2.33;;;23.50;81.20;;;;;;5018033;28;20060;-83
2022/06/12 10:55:54;;;;;;;10.18;3.00;;;23.60;81.10;;;;;;5018202;28;20018;-83
2022/06/12 10:58:29;;;;;;;10.50;2.78;;;23.60;81.40;;;;;;5021524;28;20029;-83
2022/06/12 11:01:00;;;;;;;9.02;2.58;;;23.70;80.80;;;;;;5028151;28;20022;-83
2022/06/12 11:03:35;;;;;;;10.73;2.80;;;23.60;79.40;;;;;;5018494;28;20049;-83
2022/06/12 11:06:16;;;;;;;11.18;3.17;;;23.60;79.10;;;;;;5016733;28;20129;-83
2022/06/12 11:09:13;;;;;;;8.43;2.85;;;23.60;78.40;;;;;;5022467;28;20021;-83
2022/06/12 11:11:56;;;;;;;8.85;2.78;;;23.60;78.40;;;;;;5023854;28;20112;-83
2022/06/12 11:15:20;;;;;;;9.98;2.97;;;23.60;78.30;;;;;;5016297;28;20018;-83
2022/06/12 11:18:04;;;;;;;7.15;2.53;;;23.70;77.60;;;;;;4989486;28;20030;-83
2022/06/12 11:21:00;;;;;;;9.38;2.45;;;23.70;77.00;;;;;;5031449;28;20117;-83
2022/06/12 11:23:50;;;;;;;7.82;2.47;;;23.70;75.90;;;;;;5012131;28;20045;-84
2022/06/12 11:26:43;;;;;;;9.73;2.40;;;23.70;76.50;;;;;;5020826;28;20033;-83
2022/06/12 11:29:27;;;;;;;12.00;2.53;;;23.80;76.30;;;;;;5021244;28;20022;-83
2022/06/12 11:32:10;;;;;;;9.15;2.38;;;23.80;76.30;;;;;;5029921;28;20026;-84
2022/06/12 11:35:05;;;;;;;8.52;2.60;;;23.90;76.40;;;;;;5032048;28;20028;-84
2022/06/12 11:37:46;;;;;;;10.65;2.88;;;24.00;75.70;;;;;;5020139;28;20042;-83
2022/06/12 11:40:32;;;;;;;9.95;2.40;;;24.00;76.10;;;;;;5026486;28;20052;-83
2022/06/12 11:43:27;;;;;;;7.60;2.60;;;24.10;73.40;;;;;;5030733;28;20502;-83
2022/06/12 11:46:29;;;;;;;6.55;2.20;;;24.10;74.50;;;;;;5013082;28;20030;-83
2022/06/12 11:49:07;;;;;;;5.93;1.95;;;24.10;73.20;;;;;;5013947;28;20506;-83
2022/06/12 11:51:58;;;;;;;7.10;2.00;;;24.10;73.70;;;;;;5014127;28;20105;-83
2022/06/12 11:54:42;;;;;;;6.63;2.42;;;24.10;73.30;;;;;;5006312;28;20029;-83
2022/06/12 11:57:38;;;;;;;6.97;2.42;;;24.10;71.90;;;;;;5024262;28;20440;-84
2022/06/12 12:00:14;;;;;;;7.75;2.67;;;24.10;71.70;;;;;;5015366;28;20026;-84
2022/06/12 12:03:05;;;;;;;10.07;2.58;;;24.10;71.30;;;;;;5022171;28;20056;-83
2022/06/12 12:06:02;;;;;;;6.53;1.98;;;24.20;71.80;;;;;;5025827;28;20120;-83
2022/06/12 12:08:42;;;;;;;7.50;2.03;;;24.20;70.80;;;;;;5026187;28;20502;-84
2022/06/12 12:11:13;;;;;;;7.22;2.10;;;24.30;70.20;;;;;;5012754;28;20014;-83
2022/06/12 12:13:48;;;;;;;9.15;2.45;;;24.30;70.90;;;;;;5024024;28;20118;-83
2022/06/12 12:16:29;;;;;;;4.28;1.90;;;24.30;72.20;;;;;;5016675;28;20048;-84
2022/06/12 12:19:41;;;;;;;5.45;1.80;;;24.40;72.40;;;;;;5019188;28;20467;-84
2022/06/12 12:22:29;;;;;;;5.35;1.90;;;24.50;71.00;;;;;;5007283;28;20026;-86
2022/06/12 12:25:25;;;;;;;7.57;1.77;;;24.50;71.80;;;;;;5025534;28;20382;-86
2022/06/12 12:27:58;;;;;;;6.38;2.00;;;24.50;72.40;;;;;;5023757;28;20037;-85
2022/06/12 12:30:34;;;;;;;6.43;1.95;;;24.50;71.90;;;;;;5024687;28;20041;-86
2022/06/12 12:33:03;;;;;;;6.78;2.10;;;24.60;70.40;;;;;;5021299;28;20474;-86
2022/06/12 12:41:21;;;;;;;7.07;2.20;;;24.80;70.70;;;;;;5019520;28;20092;-84
2022/06/12 12:43:59;;;;;;;4.57;1.70;;;24.80;71.00;;;;;;5015293;28;20026;-84
2022/06/12 12:46:52;;;;;;;6.78;2.00;;;24.80;71.10;;;;;;5029100;28;20119;-84
2022/06/12 12:49:23;;;;;;;6.13;1.83;;;24.90;70.40;;;;;;5025232;28;20029;-83
2022/06/12 12:51:49;;;;;;;5.95;1.75;;;24.90;70.50;;;;;;5021285;28;20107;-84
2022/06/12 12:54:18;;;;;;;5.30;1.73;;;25.00;68.90;;;;;;4992079;28;20034;-84
2022/06/12 12:56:55;;;;;;;5.82;2.00;;;25.00;69.30;;;;;;5023234;28;20497;-83
2022/06/12 12:59:21;;;;;;;5.97;1.70;;;25.00;68.50;;;;;;5017672;28;20034;-84
2022/06/12 13:01:49;;;;;;;4.90;1.70;;;25.00;68.30;;;;;;5014795;28;20018;-83
2022/06/12 13:04:33;;;;;;;6.57;1.95;;;25.00;68.00;;;;;;5001269;28;20037;-83
2022/06/12 13:07:18;;;;;;;5.13;1.60;;;25.00;68.50;;;;;;5018802;28;20038;-82
2022/06/12 13:10:22;;;;;;;6.22;1.77;;;25.10;67.40;;;;;;5024094;28;20044;-83
2022/06/12 13:13:05;;;;;;;4.35;1.40;;;25.10;66.30;;;;;;4948715;28;20098;-85
2022/06/12 13:15:54;;;;;;;6.90;1.30;;;25.10;65.50;;;;;;5012007;28;20044;-85
2022/06/12 13:18:57;;;;;;;4.85;1.50;;;25.10;65.40;;;;;;5034969;28;20014;-86
2022/06/12 13:21:54;;;;;;;6.22;1.50;;;25.10;64.50;;;;;;5032105;28;20048;-86
2022/06/12 13:24:36;;;;;;;6.15;1.60;;;25.10;64.20;;;;;;5028198;28;20026;-85
2022/06/12 13:27:23;;;;;;;4.22;1.38;;;25.10;63.60;;;;;;5023788;28;20024;-85
2022/06/12 13:29:51;;;;;;;5.93;1.45;;;25.10;62.60;;;;;;5033580;28;20501;-85
2022/06/12 13:32:21;;;;;;;3.40;1.13;;;25.10;62.00;;;;;;5034741;28;20049;-85
2022/06/12 13:34:59;;;;;;;5.53;1.63;;;25.10;62.90;;;;;;5035704;28;20032;-85
2022/06/12 13:37:30;;;;;;;3.03;1.27;;;25.10;63.20;;;;;;5032733;28;20018;-85
2022/06/12 13:39:59;;;;;;;4.43;1.42;;;25.20;62.80;;;;;;5033948;28;20501;-85
2022/06/12 13:42:27;;;;;;;4.70;1.35;;;25.20;61.30;;;;;;5015617;28;20018;-86
2022/06/12 13:44:55;;;;;;;4.03;1.30;;;25.20;61.40;;;;;;5030162;28;20095;-85
2022/06/12 13:47:35;;;;;;;3.90;1.15;;;25.20;61.90;;;;;;4999500;28;20117;-86
2022/06/12 13:50:03;;;;;;;3.75;1.38;;;25.20;63.00;;;;;;5034478;28;20513;-85
2022/06/12 13:52:47;;;;;;;3.65;1.30;;;25.30;61.10;;;;;;5034835;28;20108;-85
2022/06/12 13:55:27;;;;;;;6.13;1.73;;;25.30;59.90;;;;;;5024018;28;20483;-85
2022/06/12 13:57:59;;;;;;;5.00;1.40;;;25.30;60.00;;;;;;5034364;28;20028;-85
2022/06/12 14:00:33;;;;;;;4.80;1.48;;;25.30;60.80;;;;;;5034449;28;20024;-85
2022/06/12 14:03:00;;;;;;;4.00;1.08;;;25.30;60.90;;;;;;5034299;28;20053;-85
2022/06/12 14:05:35;;;;;;;4.85;1.75;;;25.40;60.60;;;;;;5033652;28;20126;-85
2022/06/12 14:08:03;;;;;;;4.95;1.60;;;25.40;60.40;;;;;;5034131;28;20029;-85
2022/06/12 14:10:39;;;;;;;5.03;1.70;;;25.40;60.40;;;;;;5035337;28;20014;-85
2022/06/12 14:13:16;;;;;;;5.07;1.70;;;25.50;61.00;;;;;;5021195;28;20018;-85
2022/06/12 14:15:43;;;;;;;4.65;1.45;;;25.50;61.30;;;;;;5033857;28;20030;-85
2022/06/12 14:18:29;;;;;;;5.30;1.75;;;25.50;60.80;;;;;;5033947;28;20040;-84
2022/06/12 14:21:23;;;;;;;3.60;1.42;;;25.50;60.90;;;;;;5017441;28;20124;-86
2022/06/12 14:24:21;;;;;;;4.05;1.40;;;25.50;59.80;;;;;;5023792;28;20034;-85
2022/06/12 14:26:49;;;;;;;2.53;1.20;;;25.60;59.40;;;;;;5030103;28;20036;-85
2022/06/12 14:29:32;;;;;;;4.72;1.27;;;25.50;60.00;;;;;;5033742;28;20489;-83
2022/06/12 14:32:10;;;;;;;3.38;1.60;;;25.50;58.90;;;;;;5033387;28;20018;-83
2022/06/12 14:34:37;;;;;;;4.38;1.70;;;25.50;57.50;;;;;;5033313;28;20029;-83
2022/06/12 14:40:37;;;;;;;3.17;1.60;;;25.50;58.40;;;;;;5029310;28;20433;-81
2022/06/12 14:43:11;;;;;;;6.00;1.30;;;25.40;58.00;;;;;;5013185;28;20026;-82
2022/06/12 14:45:40;;;;;;;4.70;1.40;;;25.40;58.20;;;;;;5027722;28;20029;-81
2022/06/12 14:48:12;;;;;;;4.03;1.50;;;25.40;58.30;;;;;;5020268;28;20364;-82
2022/06/12 14:50:38;;;;;;;3.42;1.42;;;25.40;58.30;;;;;;5032339;28;20022;-82
2022/06/12 14:53:06;;;;;;;3.92;1.30;;;25.40;58.50;;;;;;5012748;28;20036;-82
2022/06/12 14:55:32;;;;;;;3.92;1.63;;;25.40;57.80;;;;;;5014379;28;20026;-82
2022/06/12 14:57:58;;;;;;;2.83;1.17;;;25.40;58.00;;;;;;5033175;28;20036;-82
2022/06/12 15:00:26;;;;;;;4.93;1.52;;;25.40;57.90;;;;;;5016137;28;20091;-82
2022/06/12 15:02:52;;;;;;;4.40;1.58;;;25.40;58.30;;;;;;4996990;28;20030;-81
2022/06/12 15:05:28;;;;;;;10.38;4.10;;;25.40;58.50;;;;;;5025493;28;20372;-82
2022/06/12 15:07:54;;;;;;;4.45;2.50;;;25.40;59.20;;;;;;5011206;28;20045;-81
2022/06/12 15:10:21;;;;;;;4.50;1.60;;;25.40;59.10;;;;;;5025922;28;20022;-81
2022/06/12 15:12:47;;;;;;;5.60;1.95;;;25.40;59.20;;;;;;5028426;28;20034;-81